Time,TemperatureF,DewpointF,PressureIn,WindDirection,WindDirectionDegrees,WindSpeedMPH,WindSpeedGustMPH,Humidity,HourlyPrecipIn,Conditions,Clouds,dailyrainin,SoftwareType,DateUTC
2013-02-15 00:00:00,31.0,23.7,29.92,SW,229,0.0,0.0,74,0.00,RA,,0.00,WeatherDisplay:10.37,2013-02-15 05:00:00,
2013-02-15 00:04:00,31.3,23.6,29.93,SW,232,0.0,0.0,73,0.00,RA,,0.00,WeatherDisplay:10.37,2013-02-15 05:04:00,
2013-02-15 00:10:00,31.8,23.8,29.93,SW,232,0.0,0.0,72,0.00,CLR,,0.00,WeatherDisplay:10.37,2013-02-15 05:10:00,
2013-02-15 00:15:00,31.6,23.9,29.93,SW,232,0.0,0.0,73,0.00,CLR,,0.00,WeatherDisplay:10.37,2013-02-15 05:15:00,
2013-02-15 00:20:00,31.6,23.9,29.92,SW,230,0.0,0.0,73,0.00,CLR,,0.00,WeatherDisplay:10.37,2013-02-15 05:20:00,
2013-02-15 00:25:00,30.9,23.9,29.93,SW,230,0.0,0.0,75,0.00,CLR,,0.00,WeatherDisplay:10.37,2013-02-15 05:25:00,
2013-02-15 00:30:00,31.0,24.0,29.93,SW,232,0.0,0.0,75,0.00,CLR,,0.00,WeatherDisplay:10.37,2013-02-15 05:30:00,
2013-02-15 00:35:00,31.5,23.8,29.92,SW,230,0.0,0.0,73,0.00,CLR,,0.00,WeatherDisplay:10.37,2013-02-15 05:35:00,
2013-02-15 00:40:00,32.2,24.2,29.92,SW,232,0.0,0.0,72,0.00,CLR,,0.00,WeatherDisplay:10.37,2013-02-15 05:40:00,
2013-02-15 00:45:00,32.5,24.1,29.92,SW,232,0.0,0.0,71,0.00,CLR,,0.00,WeatherDisplay:10.37,2013-02-15 05:45:00,
2013-02-15 00:51:00,32.7,24.3,29.92,SW,232,0.0,0.0,71,0.00,CLR,,0.00,WeatherDisplay:10.37,2013-02-15 05:51:00,
2013-02-15 00:56:00,32.8,24.1,29.92,SW,232,0.0,0.0,70,0.00,CLR,,0.00,WeatherDisplay:10.37,2013-02-15 05:56:00,
2013-02-15 01:01:00,32.9,24.2,29.92,SW,232,0.0,0.0,70,0.00,CLR,,0.00,WeatherDisplay:10.37,2013-02-15 06:01:00,
2013-02-15 01:06:00,33.1,24.4,29.92,SW,232,0.0,0.0,70,0.00,CLR,,0.00,WeatherDisplay:10.37,2013-02-15 06:06:00,
2013-02-15 01:11:00,33.2,24.5,29.92,SW,232,0.0,0.0,70,0.00,CLR,,0.00,WeatherDisplay:10.37,2013-02-15 06:11:00,
2013-02-15 01:16:00,33.2,24.5,29.92,SW,232,0.0,0.0,70,0.00,CLR,,0.00,WeatherDisplay:10.37,2013-02-15 06:16:00,
2013-02-15 01:21:00,33.2,24.5,29.92,SW,232,0.0,0.0,70,0.00,CLR,,0.00,WeatherDisplay:10.37,2013-02-15 06:21:00,
2013-02-15 01:26:00,33.2,24.5,29.92,SW,232,0.0,0.0,70,0.00,CLR,,0.00,WeatherDisplay:10.37,2013-02-15 06:26:00,
2013-02-15 01:31:00,33.4,24.7,29.92,SW,234,0.0,1.2,70,0.00,CLR,,0.00,WeatherDisplay:10.37,2013-02-15 06:31:00,
2013-02-15 01:37:00,33.4,24.7,29.92,SW,236,0.0,2.0,70,0.00,CLR,,0.00,WeatherDisplay:10.37,2013-02-15 06:37:00,
2013-02-15 01:42:00,33.4,25.0,29.92,SSW,200,0.9,2.0,71,0.00,CLR,,0.00,WeatherDisplay:10.37,2013-02-15 06:42:00,
2013-02-15 01:47:00,33.2,25.1,29.92,SSW,202,0.3,1.0,72,0.00,CLR,,0.00,WeatherDisplay:10.37,2013-02-15 06:47:00,
2013-02-15 01:52:00,33.1,25.1,29.92,SSW,209,0.8,2.3,72,0.00,CLR,,0.00,WeatherDisplay:10.37,2013-02-15 06:52:00,
2013-02-15 01:57:00,32.9,25.2,29.92,SSW,209,0.0,0.0,73,0.00,CLR,,0.00,WeatherDisplay:10.37,2013-02-15 06:57:00,
2013-02-15 02:02:00,32.8,25.1,29.92,West,270,0.4,2.3,73,0.00,CLR,,0.00,WeatherDisplay:10.37,2013-02-15 07:02:00,
2013-02-15 02:08:00,33.1,25.4,29.93,West,260,0.1,2.3,73,0.00,CLR,,0.00,WeatherDisplay:10.37,2013-02-15 07:08:00,
2013-02-15 02:13:00,33.2,25.5,29.92,WSW,257,0.0,0.0,73,0.00,CLR,,0.00,WeatherDisplay:10.37,2013-02-15 07:13:00,
2013-02-15 02:18:00,33.4,25.7,29.92,WSW,246,0.0,0.0,73,0.00,CLR,,0.00,WeatherDisplay:10.37,2013-02-15 07:18:00,
2013-02-15 02:23:00,33.2,25.5,29.92,WSW,246,0.0,0.0,73,0.00,CLR,,0.00,WeatherDisplay:10.37,2013-02-15 07:23:00,
2013-02-15 02:28:00,33.2,25.5,29.92,SW,215,0.7,2.3,73,0.00,CLR,,0.00,WeatherDisplay:10.37,2013-02-15 07:28:00,
2013-02-15 02:33:00,33.4,25.7,29.92,SW,215,0.0,0.0,73,0.00,CLR,,0.00,WeatherDisplay:10.37,2013-02-15 07:33:00,
2013-02-15 02:38:00,33.4,25.7,29.92,SW,216,0.0,0.0,73,0.00,CLR,,0.00,WeatherDisplay:10.37,2013-02-15 07:38:00,
2013-02-15 02:43:00,33.4,25.7,29.91,SSW,213,0.0,0.0,73,0.00,CLR,,0.00,WeatherDisplay:10.37,2013-02-15 07:43:00,
2013-02-15 02:48:00,33.1,25.7,29.91,SSW,208,0.0,0.0,74,0.00,CLR,,0.00,WeatherDisplay:10.37,2013-02-15 07:48:00,
2013-02-15 02:53:00,32.9,25.8,29.91,SW,233,0.0,0.0,75,0.00,CLR,,0.00,WeatherDisplay:10.37,2013-02-15 07:53:00,
2013-02-15 02:58:00,32.8,25.7,29.91,West,263,0.2,1.2,75,0.00,CLR,,0.00,WeatherDisplay:10.37,2013-02-15 07:58:00,
2013-02-15 03:03:00,32.8,25.7,29.90,NW,322,0.0,2.3,75,0.00,CLR,,0.00,WeatherDisplay:10.37,2013-02-15 08:03:00,
2013-02-15 03:09:00,32.9,25.8,29.91,West,264,0.0,1.2,75,0.00,CLR,,0.00,WeatherDisplay:10.37,2013-02-15 08:09:00,
2013-02-15 03:14:00,32.9,25.8,29.91,WSW,256,0.5,1.2,75,0.00,CLR,,0.00,WeatherDisplay:10.37,2013-02-15 08:14:00,
2013-02-15 03:19:00,32.9,25.8,29.91,WSW,257,0.8,2.3,75,0.00,CLR,,0.00,WeatherDisplay:10.37,2013-02-15 08:19:00,
2013-02-15 03:24:00,32.9,26.2,29.91,WSW,243,1.2,2.3,76,0.00,CLR,,0.00,WeatherDisplay:10.37,2013-02-15 08:24:00,
2013-02-15 03:29:00,33.1,26.4,29.91,SW,230,0.0,0.0,76,0.00,CLR,,0.00,WeatherDisplay:10.37,2013-02-15 08:29:00,
2013-02-15 03:34:00,33.1,26.4,29.91,SW,217,0.0,0.0,76,0.00,CLR,,0.00,WeatherDisplay:10.37,2013-02-15 08:34:00,
2013-02-15 03:39:00,33.1,26.7,29.91,SW,219,0.0,0.0,77,0.00,CLR,,0.00,WeatherDisplay:10.37,2013-02-15 08:39:00,
2013-02-15 03:45:00,32.9,26.5,29.91,SW,220,0.0,0.0,77,0.00,CLR,,0.00,WeatherDisplay:10.37,2013-02-15 08:45:00,
2013-02-15 03:50:00,32.9,26.5,29.91,SW,220,0.0,0.0,77,0.00,CLR,,0.00,WeatherDisplay:10.37,2013-02-15 08:50:00,
2013-02-15 03:55:00,32.8,26.4,29.91,SW,220,0.0,0.0,77,0.00,CLR,,0.00,WeatherDisplay:10.37,2013-02-15 08:55:00,
2013-02-15 04:00:00,32.8,26.7,29.91,SW,220,0.0,0.0,78,0.00,CLR,,0.00,WeatherDisplay:10.37,2013-02-15 09:00:00,
2013-02-15 04:05:00,32.9,26.8,29.91,SW,222,0.0,0.0,78,0.00,CLR,,0.00,WeatherDisplay:10.37,2013-02-15 09:05:00,
2013-02-15 04:10:00,32.9,26.5,29.91,SW,223,0.0,0.0,77,0.00,CLR,,0.00,WeatherDisplay:10.37,2013-02-15 09:10:00,
2013-02-15 04:15:00,32.8,26.7,29.91,SW,223,0.0,0.0,78,0.00,CLR,,0.00,WeatherDisplay:10.37,2013-02-15 09:15:00,
2013-02-15 04:20:00,32.8,26.7,29.91,SW,223,0.0,0.0,78,0.00,CLR,,0.00,WeatherDisplay:10.37,2013-02-15 09:20:00,
2013-02-15 04:25:00,32.8,26.7,29.91,SW,222,0.0,0.0,78,0.00,CLR,,0.00,WeatherDisplay:10.37,2013-02-15 09:25:00,
2013-02-15 04:31:00,32.7,26.6,29.91,SW,220,0.0,0.0,78,0.00,CLR,,0.00,WeatherDisplay:10.37,2013-02-15 09:31:00,
2013-02-15 04:36:00,32.7,26.6,29.91,SW,222,0.0,0.0,78,0.00,CLR,,0.00,WeatherDisplay:10.37,2013-02-15 09:36:00,
2013-02-15 04:41:00,32.5,26.4,29.91,SW,222,0.0,0.0,78,0.00,CLR,,0.00,WeatherDisplay:10.37,2013-02-15 09:41:00,
2013-02-15 04:46:00,32.4,26.3,29.91,SW,223,0.0,0.0,78,0.00,CLR,,0.00,WeatherDisplay:10.37,2013-02-15 09:46:00,
2013-02-15 04:51:00,32.2,26.4,29.91,SW,223,0.0,0.0,79,0.00,CLR,,0.00,WeatherDisplay:10.37,2013-02-15 09:51:00,
2013-02-15 04:56:00,32.1,26.3,29.91,SW,224,0.0,0.0,79,0.00,CLR,,0.00,WeatherDisplay:10.37,2013-02-15 09:56:00,
2013-02-15 05:01:00,32.1,26.3,29.91,SW,224,0.0,0.0,79,0.00,CLR,,0.00,WeatherDisplay:10.37,2013-02-15 10:01:00,
2013-02-15 05:06:00,32.1,26.6,29.91,SW,226,0.0,0.0,80,0.00,CLR,,0.00,WeatherDisplay:10.37,2013-02-15 10:06:00,
2013-02-15 05:11:00,32.1,26.3,29.91,SW,226,0.0,0.0,79,0.00,CLR,,0.00,WeatherDisplay:10.37,2013-02-15 10:11:00,
2013-02-15 05:16:00,32.1,26.6,29.91,SW,226,0.0,0.0,80,0.00,CLR,,0.00,WeatherDisplay:10.37,2013-02-15 10:16:00,
2013-02-15 05:22:00,32.1,26.6,29.91,SW,226,0.0,0.0,80,0.00,CLR,,0.00,WeatherDisplay:10.37,2013-02-15 10:22:00,
2013-02-15 05:27:00,32.1,26.6,29.91,SW,226,0.0,0.0,80,0.00,CLR,,0.00,WeatherDisplay:10.37,2013-02-15 10:27:00,
2013-02-15 05:32:00,32.2,26.7,29.91,SW,234,0.0,0.0,80,0.00,CLR,,0.00,WeatherDisplay:10.37,2013-02-15 10:32:00,
2013-02-15 05:37:00,32.2,26.7,29.91,SW,234,0.0,0.0,80,0.00,CLR,,0.00,WeatherDisplay:10.37,2013-02-15 10:37:00,
2013-02-15 05:42:00,32.4,26.9,29.91,SW,234,0.0,0.0,80,0.00,CLR,,0.00,WeatherDisplay:10.37,2013-02-15 10:42:00,
2013-02-15 05:47:00,32.4,26.9,29.91,SW,236,0.0,0.0,80,0.00,CLR,,0.00,WeatherDisplay:10.37,2013-02-15 10:47:00,
2013-02-15 05:53:00,32.4,26.9,29.91,SW,236,0.0,0.0,80,0.00,CLR,,0.00,WeatherDisplay:10.37,2013-02-15 10:53:00,
2013-02-15 05:58:00,32.2,26.7,29.91,SW,236,0.0,0.0,80,0.00,CLR,,0.00,WeatherDisplay:10.37,2013-02-15 10:58:00,
2013-02-15 06:03:00,32.2,26.7,29.91,SW,236,0.0,0.0,80,0.00,CLR,,0.00,WeatherDisplay:10.37,2013-02-15 11:03:00,
2013-02-15 06:08:00,32.2,26.7,29.91,SW,236,0.0,0.0,80,0.00,CLR,,0.00,WeatherDisplay:10.37,2013-02-15 11:08:00,
2013-02-15 06:14:00,32.2,27.0,29.91,SW,236,0.0,0.0,81,0.00,CLR,,0.00,WeatherDisplay:10.37,2013-02-15 11:14:00,
2013-02-15 06:19:00,32.2,27.0,29.91,SW,236,0.0,0.0,81,0.00,CLR,,0.00,WeatherDisplay:10.37,2013-02-15 11:19:00,
2013-02-15 06:24:00,32.1,26.9,29.91,SW,236,0.0,0.0,81,0.00,CLR,,0.00,WeatherDisplay:10.37,2013-02-15 11:24:00,
2013-02-15 06:29:00,31.9,26.7,29.91,SW,236,0.0,0.0,81,0.00,CLR,,0.00,WeatherDisplay:10.37,2013-02-15 11:29:00,
2013-02-15 06:35:00,31.9,26.7,29.91,SW,236,0.0,0.0,81,0.00,CLR,,0.00,WeatherDisplay:10.37,2013-02-15 11:35:00,
2013-02-15 06:40:00,31.9,26.7,29.91,SW,236,0.0,0.0,81,0.00,CLR,,0.00,WeatherDisplay:10.37,2013-02-15 11:40:00,
2013-02-15 06:45:00,31.8,26.9,29.91,SW,236,0.0,0.0,82,0.00,CLR,,0.00,WeatherDisplay:10.37,2013-02-15 11:45:00,
2013-02-15 06:50:00,31.8,26.9,29.91,SW,236,0.0,0.0,82,0.00,CLR,,0.00,WeatherDisplay:10.37,2013-02-15 11:50:00,
2013-02-15 06:55:00,31.8,26.9,29.92,SW,236,0.0,0.0,82,0.00,CLR,,0.00,WeatherDisplay:10.37,2013-02-15 11:55:00,
2013-02-15 07:01:00,31.6,26.7,29.92,SW,236,0.0,0.0,82,0.00,CLR,,0.00,WeatherDisplay:10.37,2013-02-15 12:01:00,
2013-02-15 07:06:00,31.5,26.9,29.93,SW,236,0.0,0.0,83,0.00,CLR,,0.00,WeatherDisplay:10.37,2013-02-15 12:06:00,
2013-02-15 07:11:00,31.5,26.9,29.93,WSW,237,0.0,0.0,83,0.00,CLR,,0.00,WeatherDisplay:10.37,2013-02-15 12:11:00,
2013-02-15 07:16:00,31.5,26.9,29.93,WSW,237,0.0,0.0,83,0.00,CLR,,0.00,WeatherDisplay:10.37,2013-02-15 12:16:00,
2013-02-15 07:21:00,31.5,26.9,29.93,WSW,237,0.0,0.0,83,0.00,CLR,,0.00,WeatherDisplay:10.37,2013-02-15 12:21:00,
2013-02-15 07:26:00,31.2,26.6,29.93,WSW,237,0.0,0.0,83,0.00,CLR,,0.00,WeatherDisplay:10.37,2013-02-15 12:26:00,
2013-02-15 07:31:00,31.3,27.0,29.93,WSW,237,0.0,0.0,84,0.00,CLR,,0.00,WeatherDisplay:10.37,2013-02-15 12:31:00,
2013-02-15 07:36:00,31.5,27.2,29.93,WSW,237,0.0,0.0,84,0.00,CLR,,0.00,WeatherDisplay:10.37,2013-02-15 12:36:00,
2013-02-15 07:41:00,31.6,27.3,29.93,WSW,237,0.0,0.0,84,0.00,CLR,,0.00,WeatherDisplay:10.37,2013-02-15 12:41:00,
2013-02-15 07:46:00,31.6,27.3,29.93,WSW,237,0.0,0.0,84,0.00,CLR,,0.00,WeatherDisplay:10.37,2013-02-15 12:46:00,
2013-02-15 07:52:00,31.8,27.2,29.93,WSW,237,0.0,0.0,83,0.00,CLR,,0.00,WeatherDisplay:10.37,2013-02-15 12:52:00,
2013-02-15 07:57:00,32.1,27.8,29.94,WSW,237,0.0,0.0,84,0.00,CLR,,0.00,WeatherDisplay:10.37,2013-02-15 12:57:00,
2013-02-15 08:02:00,32.5,27.9,29.94,WSW,237,0.0,0.0,83,0.00,CLR,,0.00,WeatherDisplay:10.37,2013-02-15 13:02:00,
2013-02-15 08:07:00,33.1,28.5,29.94,WSW,237,0.0,0.0,83,0.00,CLR,,0.00,WeatherDisplay:10.37,2013-02-15 13:07:00,
2013-02-15 08:12:00,33.4,28.5,29.94,WSW,237,0.0,0.0,82,0.00,CLR,,0.00,WeatherDisplay:10.37,2013-02-15 13:12:00,
2013-02-15 08:17:00,33.7,28.5,29.94,WSW,237,0.0,0.0,81,0.00,CLR,,0.00,WeatherDisplay:10.37,2013-02-15 13:17:00,
2013-02-15 08:22:00,33.8,28.6,29.94,WSW,237,0.0,0.0,81,0.00,CLR,,0.00,WeatherDisplay:10.37,2013-02-15 13:22:00,
2013-02-15 08:27:00,34.0,28.8,29.94,SSW,210,0.0,0.0,81,0.00,CLR,,0.00,WeatherDisplay:10.37,2013-02-15 13:27:00,
2013-02-15 08:32:00,34.4,29.2,29.94,SSW,208,0.0,0.0,81,0.00,CLR,,0.00,WeatherDisplay:10.37,2013-02-15 13:32:00,
2013-02-15 08:37:00,34.7,29.2,29.94,SSW,192,0.0,0.0,80,0.00,CLR,,0.00,WeatherDisplay:10.37,2013-02-15 13:37:00,
2013-02-15 08:42:00,35.0,29.5,29.94,SSW,203,0.0,0.0,80,0.00,CLR,,0.00,WeatherDisplay:10.37,2013-02-15 13:42:00,
2013-02-15 08:47:00,35.3,29.4,29.94,SSW,202,0.0,0.0,79,0.00,CLR,,0.00,WeatherDisplay:10.37,2013-02-15 13:47:00,
2013-02-15 08:53:00,35.6,29.1,29.94,SW,224,2.7,3.5,77,0.00,CLR,,0.00,WeatherDisplay:10.37,2013-02-15 13:53:00,
2013-02-15 08:58:00,35.8,29.6,29.94,SW,216,2.5,4.6,78,0.00,CLR,,0.00,WeatherDisplay:10.37,2013-02-15 13:58:00,
2013-02-15 09:03:00,36.0,29.5,29.94,South,188,1.8,3.5,77,0.00,CLR,,0.00,WeatherDisplay:10.37,2013-02-15 14:03:00,
2013-02-15 09:08:00,36.3,29.8,29.94,SSW,210,1.3,5.0,77,0.00,CLR,,0.00,WeatherDisplay:10.37,2013-02-15 14:08:00,
2013-02-15 09:13:00,36.9,30.4,29.94,South,186,1.1,3.5,77,0.00,CLR,,0.00,WeatherDisplay:10.37,2013-02-15 14:13:00,
2013-02-15 09:18:00,37.2,30.7,29.94,SSW,198,0.4,2.3,77,0.00,CLR,,0.00,WeatherDisplay:10.37,2013-02-15 14:18:00,
2013-02-15 09:23:00,37.2,30.3,29.94,South,179,0.9,4.6,76,0.00,CLR,,0.00,WeatherDisplay:10.37,2013-02-15 14:23:00,
2013-02-15 09:28:00,37.3,30.1,29.94,South,188,0.5,3.5,75,0.00,CLR,,0.00,WeatherDisplay:10.37,2013-02-15 14:28:00,
2013-02-15 09:33:00,37.6,30.4,29.94,South,191,2.0,4.6,75,0.00,CLR,,0.00,WeatherDisplay:10.37,2013-02-15 14:33:00,
2013-02-15 09:38:00,38.0,30.4,29.94,South,182,2.1,4.6,74,0.00,CLR,,0.00,WeatherDisplay:10.37,2013-02-15 14:38:00,
2013-02-15 09:43:00,38.2,30.6,29.94,SSW,195,1.2,3.5,74,0.00,CLR,,0.00,WeatherDisplay:10.37,2013-02-15 14:43:00,
2013-02-15 09:48:00,38.3,30.4,29.94,SSW,203,2.4,5.8,73,0.00,CLR,,0.00,WeatherDisplay:10.37,2013-02-15 14:48:00,
2013-02-15 09:53:00,38.8,30.9,29.94,South,185,1.5,5.0,73,0.00,CLR,,0.00,WeatherDisplay:10.37,2013-02-15 14:53:00,
2013-02-15 09:58:00,39.1,31.2,29.94,South,182,1.7,4.6,73,0.00,CLR,,0.00,WeatherDisplay:10.37,2013-02-15 14:58:00,
2013-02-15 10:03:00,39.3,31.4,29.94,South,179,1.7,5.8,73,0.00,CLR,,0.00,WeatherDisplay:10.37,2013-02-15 15:03:00,
2013-02-15 10:08:00,40.1,31.8,29.94,South,181,0.7,2.0,72,0.00,CLR,,0.00,WeatherDisplay:10.37,2013-02-15 15:08:00,
2013-02-15 10:13:00,40.3,31.6,29.94,SSW,200,1.5,5.8,71,0.00,CLR,,0.00,WeatherDisplay:10.37,2013-02-15 15:13:00,
2013-02-15 10:18:00,41.1,31.7,29.93,SW,232,0.8,6.0,69,0.00,CLR,,0.00,WeatherDisplay:10.37,2013-02-15 15:18:00,
2013-02-15 10:23:00,41.2,31.8,29.93,SSW,202,3.8,9.2,69,0.00,CLR,,0.00,WeatherDisplay:10.37,2013-02-15 15:23:00,
2013-02-15 10:28:00,41.9,32.1,29.93,SSW,202,3.4,5.0,68,0.00,CLR,,0.00,WeatherDisplay:10.37,2013-02-15 15:28:00,
2013-02-15 10:33:00,42.2,31.6,29.93,South,189,4.2,8.1,66,0.00,CLR,,0.00,WeatherDisplay:10.37,2013-02-15 15:33:00,
2013-02-15 10:38:00,42.8,31.8,29.93,SSW,203,7.3,11.5,65,0.00,CLR,,0.00,WeatherDisplay:10.37,2013-02-15 15:38:00,
2013-02-15 10:43:00,42.8,31.5,29.93,South,185,5.4,8.1,64,0.00,CLR,,0.00,WeatherDisplay:10.37,2013-02-15 15:43:00,
2013-02-15 10:48:00,43.6,31.8,29.93,WSW,247,4.6,11.5,63,0.00,CLR,,0.00,WeatherDisplay:10.37,2013-02-15 15:48:00,
2013-02-15 10:53:00,44.1,31.9,29.92,SW,232,6.5,6.9,62,0.00,CLR,,0.00,WeatherDisplay:10.37,2013-02-15 15:53:00,
2013-02-15 10:58:00,44.3,31.3,29.92,SW,219,4.1,10.4,60,0.00,CLR,,0.00,WeatherDisplay:10.37,2013-02-15 15:58:00,
2013-02-15 11:03:00,44.6,31.6,29.92,SSW,205,7.5,9.2,60,0.00,CLR,,0.00,WeatherDisplay:10.37,2013-02-15 16:03:00,
2013-02-15 11:08:00,44.6,31.6,29.92,SW,217,3.5,9.2,60,0.00,CLR,,0.00,WeatherDisplay:10.37,2013-02-15 16:08:00,
2013-02-15 11:13:00,45.1,31.6,29.92,West,271,5.2,6.9,59,0.00,CLR,,0.00,WeatherDisplay:10.37,2013-02-15 16:13:00,
2013-02-15 11:18:00,45.5,31.6,29.92,SSW,206,7.1,11.5,58,0.00,CLR,,0.00,WeatherDisplay:10.37,2013-02-15 16:18:00,
2013-02-15 11:23:00,45.8,33.1,29.92,South,181,1.3,8.1,61,0.00,CLR,,0.00,WeatherDisplay:10.37,2013-02-15 16:23:00,
2013-02-15 11:29:00,46.2,32.7,29.91,WSW,240,6.6,11.5,59,0.00,CLR,,0.00,WeatherDisplay:10.37,2013-02-15 16:29:00,
2013-02-15 11:34:00,46.7,31.8,29.91,South,184,6.7,8.1,56,0.00,CLR,,0.00,WeatherDisplay:10.37,2013-02-15 16:34:00,
2013-02-15 11:39:00,47.3,32.8,29.91,SW,227,6.0,11.0,57,0.00,CLR,,0.00,WeatherDisplay:10.37,2013-02-15 16:39:00,
2013-02-15 11:44:00,47.6,32.2,29.90,WSW,241,3.2,9.2,55,0.00,CLR,,0.00,WeatherDisplay:10.37,2013-02-15 16:44:00,
2013-02-15 11:49:00,48.3,31.5,29.90,SW,215,10.4,18.4,52,0.00,CLR,,0.00,WeatherDisplay:10.37,2013-02-15 16:49:00,
2013-02-15 11:54:00,47.7,30.4,29.90,SW,220,10.7,19.6,51,0.00,CLR,,0.00,WeatherDisplay:10.37,2013-02-15 16:54:00,
2013-02-15 11:59:00,47.7,30.9,29.90,WSW,239,7.4,18.0,52,0.01,RA,,0.01,WeatherDisplay:10.37,2013-02-15 16:59:00,
2013-02-15 12:04:00,47.9,31.1,29.90,SSW,196,5.6,12.7,52,0.01,RA,,0.01,WeatherDisplay:10.37,2013-02-15 17:04:00,
2013-02-15 12:09:00,48.0,30.7,29.89,SW,224,8.8,17.3,51,0.01,CLR,,0.01,WeatherDisplay:10.37,2013-02-15 17:09:00,
2013-02-15 12:14:00,48.3,31.9,29.89,WSW,240,7.8,13.8,53,0.01,CLR,,0.01,WeatherDisplay:10.37,2013-02-15 17:14:00,
2013-02-15 12:19:00,48.5,31.2,29.88,WSW,243,9.8,16.1,51,0.01,CLR,,0.01,WeatherDisplay:10.37,2013-02-15 17:19:00,
2013-02-15 12:24:00,48.3,30.5,29.88,WSW,258,8.3,13.8,50,0.01,CLR,,0.01,WeatherDisplay:10.37,2013-02-15 17:24:00,
2013-02-15 12:29:00,48.5,30.7,29.88,WSW,243,8.8,16.0,50,0.01,CLR,,0.01,WeatherDisplay:10.37,2013-02-15 17:29:00,
2013-02-15 12:34:00,48.9,30.6,29.88,SW,216,8.4,14.0,49,0.01,CLR,,0.01,WeatherDisplay:10.37,2013-02-15 17:34:00,
2013-02-15 12:39:00,49.1,30.2,29.88,SSW,193,6.9,13.8,48,0.01,CLR,,0.01,WeatherDisplay:10.37,2013-02-15 17:39:00,
2013-02-15 12:44:00,48.9,30.6,29.88,WSW,251,5.9,8.1,49,0.01,CLR,,0.01,WeatherDisplay:10.37,2013-02-15 17:44:00,
2013-02-15 12:49:00,48.9,30.6,29.88,SW,224,8.3,12.7,49,0.01,CLR,,0.01,WeatherDisplay:10.37,2013-02-15 17:49:00,
2013-02-15 12:54:00,49.1,30.7,29.88,SW,229,4.1,18.4,49,0.01,CLR,,0.01,WeatherDisplay:10.37,2013-02-15 17:54:00,
2013-02-15 12:59:00,49.5,31.1,29.87,WSW,246,5.8,13.8,49,0.00,CLR,,0.01,WeatherDisplay:10.37,2013-02-15 17:59:00,
2013-02-15 13:04:00,49.8,29.8,29.87,NW,322,4.8,11.5,46,0.00,CLR,,0.01,WeatherDisplay:10.37,2013-02-15 18:04:00,
2013-02-15 13:09:00,49.6,30.7,29.87,WNW,287,7.3,11.5,48,0.00,CLR,,0.01,WeatherDisplay:10.37,2013-02-15 18:09:00,
2013-02-15 13:14:00,49.8,29.8,29.87,West,277,5.9,12.7,46,0.00,CLR,,0.01,WeatherDisplay:10.37,2013-02-15 18:14:00,
2013-02-15 13:19:00,49.9,31.0,29.87,SW,226,4.7,12.0,48,0.00,CLR,,0.01,WeatherDisplay:10.37,2013-02-15 18:19:00,
2013-02-15 13:24:00,49.8,29.8,29.87,WSW,258,5.9,13.8,46,0.00,CLR,,0.01,WeatherDisplay:10.37,2013-02-15 18:24:00,
2013-02-15 13:29:00,49.8,29.3,29.87,SW,229,8.3,8.3,45,0.00,CLR,,0.01,WeatherDisplay:10.37,2013-02-15 18:29:00,
2013-02-15 13:35:00,50.2,29.1,29.87,West,264,4.9,11.5,44,0.00,CLR,,0.01,WeatherDisplay:10.37,2013-02-15 18:35:00,
2013-02-15 13:40:00,50.2,29.1,29.86,West,270,6.8,13.8,44,0.00,CLR,,0.01,WeatherDisplay:10.37,2013-02-15 18:40:00,
2013-02-15 13:45:00,50.5,29.4,29.86,SW,223,3.9,11.5,44,0.00,CLR,,0.01,WeatherDisplay:10.37,2013-02-15 18:45:00,
2013-02-15 13:50:00,51.0,30.9,29.86,WSW,246,0.4,3.5,46,0.00,CLR,,0.01,WeatherDisplay:10.37,2013-02-15 18:50:00,
2013-02-15 13:55:00,51.1,29.9,29.86,SSW,203,4.0,12.0,44,0.00,CLR,,0.01,WeatherDisplay:10.37,2013-02-15 18:55:00,
2013-02-15 14:00:00,50.5,28.2,29.85,West,264,8.4,17.3,42,0.00,CLR,,0.01,WeatherDisplay:10.37,2013-02-15 19:00:00,
2013-02-15 14:05:00,50.5,28.8,29.85,North,357,2.3,16.1,43,0.00,CLR,,0.01,WeatherDisplay:10.37,2013-02-15 19:05:00,
2013-02-15 14:10:00,51.0,29.3,29.86,West,278,4.9,10.4,43,0.00,CLR,,0.01,WeatherDisplay:10.37,2013-02-15 19:10:00,
2013-02-15 14:15:00,51.1,28.2,29.86,WNW,299,5.5,11.5,41,0.00,CLR,,0.01,WeatherDisplay:10.37,2013-02-15 19:15:00,
2013-02-15 14:20:00,51.0,27.5,29.85,West,263,5.1,12.7,40,0.00,CLR,,0.01,WeatherDisplay:10.37,2013-02-15 19:20:00,
2013-02-15 14:25:00,51.1,27.6,29.85,WSW,254,7.8,18.4,40,0.00,CLR,,0.01,WeatherDisplay:10.37,2013-02-15 19:25:00,
2013-02-15 14:31:00,51.1,27.6,29.85,WNW,289,1.5,12.0,40,0.00,CLR,,0.01,WeatherDisplay:10.37,2013-02-15 19:31:00,
2013-02-15 14:36:00,51.0,27.5,29.85,WSW,240,4.2,8.1,40,0.00,CLR,,0.01,WeatherDisplay:10.37,2013-02-15 19:36:00,
2013-02-15 14:41:00,51.4,28.5,29.85,WSW,244,0.4,1.2,41,0.00,CLR,,0.01,WeatherDisplay:10.37,2013-02-15 19:41:00,
2013-02-15 14:46:00,51.4,27.9,29.85,WNW,291,5.3,12.7,40,0.00,CLR,,0.01,WeatherDisplay:10.37,2013-02-15 19:46:00,
2013-02-15 14:51:00,51.0,27.5,29.85,SW,230,1.6,11.5,40,0.00,CLR,,0.01,WeatherDisplay:10.37,2013-02-15 19:51:00,
2013-02-15 14:56:00,51.3,27.2,29.85,WSW,241,6.2,10.0,39,0.00,CLR,,0.01,WeatherDisplay:10.37,2013-02-15 19:56:00,
2013-02-15 15:02:00,51.0,26.9,29.85,SW,215,2.2,6.9,39,0.00,CLR,,0.01,WeatherDisplay:10.37,2013-02-15 20:02:00,
2013-02-15 15:07:00,51.3,27.2,29.85,WSW,250,2.7,6.9,39,0.00,CLR,,0.01,WeatherDisplay:10.37,2013-02-15 20:07:00,
2013-02-15 15:12:00,51.4,27.9,29.85,NW,325,2.6,5.8,40,0.00,CLR,,0.01,WeatherDisplay:10.37,2013-02-15 20:12:00,
2013-02-15 15:17:00,51.3,29.0,29.85,WSW,247,2.1,3.5,42,0.00,CLR,,0.01,WeatherDisplay:10.37,2013-02-15 20:17:00,
2013-02-15 15:22:00,51.3,26.5,29.85,SSW,200,4.2,11.5,38,0.00,CLR,,0.01,WeatherDisplay:10.37,2013-02-15 20:22:00,
2013-02-15 15:27:00,51.1,26.3,29.85,WNW,299,3.3,14.0,38,0.00,CLR,,0.01,WeatherDisplay:10.37,2013-02-15 20:27:00,
2013-02-15 15:32:00,51.0,24.3,29.85,SW,232,7.7,11.5,35,0.00,CLR,,0.01,WeatherDisplay:10.37,2013-02-15 20:32:00,
2013-02-15 15:38:00,50.7,25.3,29.85,West,260,2.5,11.5,37,0.00,CLR,,0.01,WeatherDisplay:10.37,2013-02-15 20:38:00,
2013-02-15 15:43:00,50.7,24.0,29.85,West,268,2.4,6.9,35,0.00,CLR,,0.01,WeatherDisplay:10.37,2013-02-15 20:43:00,
2013-02-15 15:48:00,50.7,24.7,29.85,West,275,7.8,17.3,36,0.00,CLR,,0.01,WeatherDisplay:10.37,2013-02-15 20:48:00,
2013-02-15 15:53:00,50.4,25.1,29.85,WSW,244,2.9,6.9,37,0.00,CLR,,0.01,WeatherDisplay:10.37,2013-02-15 20:53:00,
2013-02-15 15:58:00,50.7,25.3,29.85,WSW,250,1.0,3.5,37,0.00,CLR,,0.01,WeatherDisplay:10.37,2013-02-15 20:58:00,
2013-02-15 16:03:00,50.7,25.3,29.86,WNW,288,0.4,3.0,37,0.00,CLR,,0.01,WeatherDisplay:10.37,2013-02-15 21:03:00,
2013-02-15 16:08:00,50.4,26.3,29.86,WSW,256,4.2,10.4,39,0.00,CLR,,0.01,WeatherDisplay:10.37,2013-02-15 21:08:00,
2013-02-15 16:13:00,49.9,26.5,29.86,WSW,240,2.3,5.8,40,0.00,CLR,,0.01,WeatherDisplay:10.37,2013-02-15 21:13:00,
2013-02-15 16:19:00,49.5,26.1,29.86,WSW,240,2.2,5.8,40,0.00,CLR,,0.01,WeatherDisplay:10.37,2013-02-15 21:19:00,
2013-02-15 16:24:00,49.4,26.7,29.86,WNW,284,0.2,4.6,41,0.00,CLR,,0.01,WeatherDisplay:10.37,2013-02-15 21:24:00,
2013-02-15 16:29:00,49.2,27.6,29.87,WNW,284,1.3,3.5,43,0.00,CLR,,0.01,WeatherDisplay:10.37,2013-02-15 21:29:00,
2013-02-15 16:34:00,49.2,27.1,29.87,WNW,294,6.2,12.7,42,0.00,CLR,,0.01,WeatherDisplay:10.37,2013-02-15 21:34:00,
2013-02-15 16:39:00,48.9,27.4,29.87,WNW,291,1.9,6.9,43,0.00,CLR,,0.01,WeatherDisplay:10.37,2013-02-15 21:39:00,
2013-02-15 16:45:00,48.8,27.8,29.87,WSW,251,0.5,4.6,44,0.00,CLR,,0.01,WeatherDisplay:10.37,2013-02-15 21:45:00,
2013-02-15 16:50:00,48.6,28.2,29.87,West,281,0.5,3.5,45,0.00,CLR,,0.01,WeatherDisplay:10.37,2013-02-15 21:50:00,
2013-02-15 16:55:00,48.5,28.1,29.86,West,268,0.6,3.5,45,0.00,CLR,,0.01,WeatherDisplay:10.37,2013-02-15 21:55:00,
2013-02-15 17:00:00,48.2,27.8,29.86,WNW,295,1.0,4.6,45,0.00,CLR,,0.01,WeatherDisplay:10.37,2013-02-15 22:00:00,
2013-02-15 17:05:00,48.0,27.6,29.87,West,265,1.2,1.2,45,0.00,CLR,,0.01,WeatherDisplay:10.37,2013-02-15 22:05:00,
2013-02-15 17:11:00,47.9,28.1,29.86,WSW,254,0.3,2.3,46,0.00,CLR,,0.01,WeatherDisplay:10.37,2013-02-15 22:11:00,
2013-02-15 17:16:00,47.4,27.6,29.86,WNW,289,0.0,2.3,46,0.00,CLR,,0.01,WeatherDisplay:10.37,2013-02-15 22:16:00,
2013-02-15 17:21:00,47.3,28.1,29.86,West,280,0.3,2.3,47,0.00,CLR,,0.01,WeatherDisplay:10.37,2013-02-15 22:21:00,
2013-02-15 17:26:00,47.1,28.4,29.86,West,265,0.8,3.5,48,0.00,CLR,,0.01,WeatherDisplay:10.37,2013-02-15 22:26:00,
2013-02-15 17:31:00,47.0,28.8,29.86,WSW,258,0.0,0.0,49,0.00,CLR,,0.01,WeatherDisplay:10.37,2013-02-15 22:31:00,
2013-02-15 17:36:00,46.8,28.6,29.86,WSW,257,0.0,0.0,49,0.00,CLR,,0.01,WeatherDisplay:10.37,2013-02-15 22:36:00,
2013-02-15 17:41:00,46.5,28.8,29.86,West,280,0.0,0.0,50,0.00,CLR,,0.01,WeatherDisplay:10.37,2013-02-15 22:41:00,
2013-02-15 17:46:00,46.2,28.6,29.86,West,280,0.0,0.0,50,0.00,CLR,,0.01,WeatherDisplay:10.37,2013-02-15 22:46:00,
2013-02-15 17:51:00,46.1,29.0,29.86,West,280,0.0,0.0,51,0.00,CLR,,0.01,WeatherDisplay:10.37,2013-02-15 22:51:00,
2013-02-15 17:56:00,46.0,28.9,29.86,WNW,294,0.0,3.5,51,0.00,CLR,,0.01,WeatherDisplay:10.37,2013-02-15 22:56:00,
2013-02-15 18:01:00,45.8,28.7,29.86,NW,313,0.0,3.5,51,0.00,CLR,,0.01,WeatherDisplay:10.37,2013-02-15 23:01:00,
2013-02-15 18:07:00,45.5,27.9,29.86,NNW,328,0.8,0.0,50,0.00,CLR,,0.01,WeatherDisplay:10.37,2013-02-15 23:07:00,
2013-02-15 18:12:00,45.2,27.2,29.86,WNW,291,0.2,0.0,49,0.00,CLR,,0.01,WeatherDisplay:10.37,2013-02-15 23:12:00,
2013-02-15 18:17:00,45.2,27.2,29.86,WNW,294,0.0,0.0,49,0.00,CLR,,0.01,WeatherDisplay:10.37,2013-02-15 23:17:00,
2013-02-15 18:22:00,45.1,26.1,29.86,West,267,0.6,5.8,47,0.00,CLR,,0.01,WeatherDisplay:10.37,2013-02-15 23:22:00,
2013-02-15 18:27:00,45.1,27.1,29.86,WSW,250,0.0,0.0,49,0.00,CLR,,0.01,WeatherDisplay:10.37,2013-02-15 23:27:00,
2013-02-15 18:32:00,44.9,27.4,29.86,WSW,250,0.0,0.0,50,0.00,CLR,,0.01,WeatherDisplay:10.37,2013-02-15 23:32:00,
2013-02-15 18:37:00,44.9,27.4,29.86,WSW,250,0.0,0.0,50,0.00,CLR,,0.01,WeatherDisplay:10.37,2013-02-15 23:37:00,
2013-02-15 18:42:00,44.8,26.3,29.86,WSW,243,0.0,0.0,48,0.00,CLR,,0.01,WeatherDisplay:10.37,2013-02-15 23:42:00,
2013-02-15 18:47:00,44.6,26.6,29.86,WSW,243,0.0,0.0,49,0.00,CLR,,0.01,WeatherDisplay:10.37,2013-02-15 23:47:00,
2013-02-15 18:52:00,44.6,25.6,29.86,WSW,243,0.0,0.0,47,0.00,CLR,,0.01,WeatherDisplay:10.37,2013-02-15 23:52:00,
2013-02-15 18:58:00,44.5,25.0,29.86,West,271,0.0,0.0,46,0.00,CLR,,0.01,WeatherDisplay:10.37,2013-02-15 23:58:00,
2013-02-15 19:03:00,44.5,24.5,29.87,WNW,301,0.0,0.0,45,0.00,CLR,,0.01,WeatherDisplay:10.37,2013-02-16 00:03:00,
2013-02-15 19:08:00,44.5,24.5,29.87,WNW,302,0.0,2.3,45,0.00,CLR,,0.01,WeatherDisplay:10.37,2013-02-16 00:08:00,
2013-02-15 19:13:00,44.3,23.7,29.86,NW,306,0.0,0.0,44,0.00,CLR,,0.01,WeatherDisplay:10.37,2013-02-16 00:13:00,
2013-02-15 19:18:00,44.2,24.7,29.87,NW,306,0.0,0.0,46,0.00,CLR,,0.01,WeatherDisplay:10.37,2013-02-16 00:18:00,
2013-02-15 19:23:00,44.1,24.6,29.87,NW,306,0.0,0.0,46,0.00,CLR,,0.01,WeatherDisplay:10.37,2013-02-16 00:23:00,
2013-02-15 19:28:00,44.1,24.1,29.87,NW,320,0.0,0.0,45,0.00,CLR,,0.01,WeatherDisplay:10.37,2013-02-16 00:28:00,
2013-02-15 19:33:00,44.1,24.1,29.87,NW,319,0.0,0.0,45,0.00,CLR,,0.01,WeatherDisplay:10.37,2013-02-16 00:33:00,
2013-02-15 19:38:00,44.1,24.6,29.87,WNW,295,0.0,0.0,46,0.00,CLR,,0.01,WeatherDisplay:10.37,2013-02-16 00:38:00,
2013-02-15 19:44:00,44.1,25.1,29.87,WNW,294,0.0,0.0,47,0.00,CLR,,0.01,WeatherDisplay:10.37,2013-02-16 00:44:00,
2013-02-15 19:49:00,43.9,25.5,29.86,WNW,295,0.0,0.0,48,0.00,CLR,,0.01,WeatherDisplay:10.37,2013-02-16 00:49:00,
2013-02-15 19:54:00,43.6,24.7,29.86,WNW,295,0.0,0.0,47,0.00,CLR,,0.01,WeatherDisplay:10.37,2013-02-16 00:54:00,
2013-02-15 19:59:00,43.5,25.1,29.87,North,349,1.8,4.6,48,0.00,CLR,,0.01,WeatherDisplay:10.37,2013-02-16 00:59:00,
2013-02-15 20:05:00,43.2,25.3,29.86,WNW,284,0.1,2.0,49,0.00,CLR,,0.01,WeatherDisplay:10.37,2013-02-16 01:05:00,
2013-02-15 20:10:00,43.1,25.7,29.86,WNW,284,0.0,0.0,50,0.00,CLR,,0.01,WeatherDisplay:10.37,2013-02-16 01:10:00,
2013-02-15 20:15:00,42.8,25.4,29.86,NW,306,0.5,3.5,50,0.00,CLR,,0.01,WeatherDisplay:10.37,2013-02-16 01:15:00,
2013-02-15 20:20:00,42.6,25.7,29.86,NNW,328,0.0,0.0,51,0.00,CLR,,0.01,WeatherDisplay:10.37,2013-02-16 01:20:00,
2013-02-15 20:25:00,42.5,25.1,29.86,North,359,1.0,3.5,50,0.00,CLR,,0.01,WeatherDisplay:10.37,2013-02-16 01:25:00,
2013-02-15 20:30:00,42.5,25.6,29.87,WNW,285,0.0,0.0,51,0.00,CLR,,0.01,WeatherDisplay:10.37,2013-02-16 01:30:00,
2013-02-15 20:35:00,42.3,25.9,29.87,WNW,299,0.0,0.0,52,0.00,CLR,,0.01,WeatherDisplay:10.37,2013-02-16 01:35:00,
2013-02-15 20:40:00,42.3,25.9,29.87,North,349,0.1,0.0,52,0.00,CLR,,0.01,WeatherDisplay:10.37,2013-02-16 01:40:00,
2013-02-15 20:45:00,42.2,25.3,29.87,NW,312,0.2,1.0,51,0.00,CLR,,0.01,WeatherDisplay:10.37,2013-02-16 01:45:00,
2013-02-15 20:51:00,42.2,25.3,29.87,WNW,299,0.0,2.0,51,0.00,CLR,,0.01,WeatherDisplay:10.37,2013-02-16 01:51:00,
2013-02-15 20:56:00,42.2,25.8,29.87,WNW,292,2.1,10.0,52,0.00,CLR,,0.01,WeatherDisplay:10.37,2013-02-16 01:56:00,
2013-02-15 21:01:00,42.1,26.6,29.87,NNW,337,0.4,2.3,54,0.00,CLR,,0.01,WeatherDisplay:10.37,2013-02-16 02:01:00,
2013-02-15 21:06:00,41.9,26.9,29.88,WSW,254,0.8,3.5,55,0.00,CLR,,0.01,WeatherDisplay:10.37,2013-02-16 02:06:00,
2013-02-15 21:11:00,41.6,27.5,29.88,North,0,0.2,1.2,57,0.00,CLR,,0.01,WeatherDisplay:10.37,2013-02-16 02:11:00,
2013-02-15 21:16:00,41.2,27.9,29.88,NW,326,2.2,6.9,59,0.00,CLR,,0.01,WeatherDisplay:10.37,2013-02-16 02:16:00,
2013-02-15 21:21:00,40.8,29.6,29.88,North,0,1.3,5.8,64,0.00,CLR,,0.01,WeatherDisplay:10.37,2013-02-16 02:21:00,
2013-02-15 21:26:00,40.2,30.5,29.88,WNW,301,2.6,5.8,68,0.00,CLR,,0.01,WeatherDisplay:10.37,2013-02-16 02:26:00,
2013-02-15 21:31:00,39.8,30.8,29.89,WNW,291,0.7,2.3,70,0.00,CLR,,0.01,WeatherDisplay:10.37,2013-02-16 02:31:00,
2013-02-15 21:36:00,39.3,30.7,29.89,WNW,294,0.5,2.3,71,0.00,CLR,,0.01,WeatherDisplay:10.37,2013-02-16 02:36:00,
2013-02-15 21:41:00,38.9,31.0,29.89,NNW,347,0.0,0.0,73,0.00,CLR,,0.01,WeatherDisplay:10.37,2013-02-16 02:41:00,
2013-02-15 21:46:00,38.6,30.7,29.90,NW,304,0.1,6.9,73,0.00,CLR,,0.01,WeatherDisplay:10.37,2013-02-16 02:46:00,
2013-02-15 21:52:00,38.5,30.9,29.90,NW,308,0.0,0.0,74,0.00,CLR,,0.01,WeatherDisplay:10.37,2013-02-16 02:52:00,
2013-02-15 21:57:00,38.2,31.3,29.90,NNW,336,0.3,1.2,76,0.00,CLR,,0.01,WeatherDisplay:10.37,2013-02-16 02:57:00,
2013-02-15 22:02:00,37.9,31.7,29.91,WNW,299,0.0,0.0,78,0.00,CLR,,0.01,WeatherDisplay:10.37,2013-02-16 03:02:00,
2013-02-15 22:07:00,37.3,31.7,29.91,NW,308,3.1,5.8,80,0.01,RA,,0.02,WeatherDisplay:10.37,2013-02-16 03:07:00,
2013-02-15 22:12:00,36.9,31.6,29.91,WNW,287,0.0,0.0,81,0.01,RA,,0.02,WeatherDisplay:10.37,2013-02-16 03:12:00,
2013-02-15 22:17:00,36.5,31.8,29.91,NW,315,0.6,0.0,83,0.01,,,0.02,WeatherDisplay:10.37,2013-02-16 03:17:00,
2013-02-15 22:22:00,36.0,31.6,29.92,NW,305,0.0,0.0,84,0.02,RA,,0.03,WeatherDisplay:10.37,2013-02-16 03:22:00,
2013-02-15 22:27:00,35.8,32.0,29.92,NW,319,0.0,0.0,86,0.02,RA,,0.03,WeatherDisplay:10.37,2013-02-16 03:27:00,
2013-02-15 22:32:00,35.6,31.8,29.92,NW,319,0.0,0.0,86,0.03,RA,,0.04,WeatherDisplay:10.37,2013-02-16 03:32:00,
2013-02-15 22:38:00,35.3,31.8,29.92,NW,318,0.0,0.0,87,0.03,RA,,0.04,WeatherDisplay:10.37,2013-02-16 03:38:00,
2013-02-15 22:43:00,35.0,31.5,29.92,NW,318,0.0,0.0,87,0.04,RA,,0.05,WeatherDisplay:10.37,2013-02-16 03:43:00,
2013-02-15 22:48:00,34.9,31.7,29.92,NW,318,0.0,0.0,88,0.04,RA,,0.05,WeatherDisplay:10.37,2013-02-16 03:48:00,
2013-02-15 22:54:00,34.6,31.4,29.92,NW,318,0.0,0.0,88,0.05,RA,,0.06,WeatherDisplay:10.37,2013-02-16 03:54:00,
2013-02-15 22:59:00,34.4,31.5,29.92,NW,318,0.0,0.0,89,0.05,RA,,0.06,WeatherDisplay:10.37,2013-02-16 03:59:00,
2013-02-15 23:04:00,34.3,31.4,29.92,NW,318,0.0,0.0,89,0.05,RA,,0.06,WeatherDisplay:10.37,2013-02-16 04:04:00,
2013-02-15 23:09:00,34.0,31.1,29.91,NW,318,0.0,0.0,89,0.05,,,0.06,WeatherDisplay:10.37,2013-02-16 04:09:00,
2013-02-15 23:14:00,33.8,31.2,29.91,NW,318,0.0,0.0,90,0.06,RA,,0.07,WeatherDisplay:10.37,2013-02-16 04:14:00,
2013-02-15 23:19:00,33.7,31.1,29.91,NW,318,0.0,0.0,90,0.05,RA,,0.07,WeatherDisplay:10.37,2013-02-16 04:19:00,
2013-02-15 23:25:00,33.5,30.9,29.91,NW,318,0.0,0.0,90,0.05,,,0.07,WeatherDisplay:10.37,2013-02-16 04:25:00,
2013-02-15 23:30:00,33.4,30.8,29.91,NW,318,0.0,0.0,90,0.04,CLR,,0.07,WeatherDisplay:10.37,2013-02-16 04:30:00,
2013-02-15 23:35:00,33.2,30.6,29.91,NW,318,0.0,0.0,90,0.04,CLR,,0.07,WeatherDisplay:10.37,2013-02-16 04:35:00,
2013-02-15 23:40:00,33.2,30.9,29.92,NW,318,0.0,0.0,91,0.04,CLR,,0.08,WeatherDisplay:10.37,2013-02-16 04:40:00,
2013-02-15 23:45:00,33.1,30.8,29.91,NW,318,0.0,0.0,91,0.04,RA,,0.08,WeatherDisplay:10.37,2013-02-16 04:45:00,
2013-02-15 23:50:00,33.1,30.8,29.91,NW,318,0.0,0.0,91,0.03,RA,,0.08,WeatherDisplay:10.37,2013-02-16 04:50:00,
2013-02-15 23:55:00,33.1,30.8,29.91,NW,318,0.0,0.0,91,0.03,CLR,,0.08,WeatherDisplay:10.37,2013-02-16 04:55:00,